AirNav   ATP
 
 1459 users online  

8CL1 Lake Wohlford Resort Airport
Escondido, California, USA

GOING TO ESCONDIDO?


FAA INFORMATION EFFECTIVE 14 SEPTEMBER 2017

Location

FAA Identifier: 8CL1
Lat/Long: 33-11-10.1360N / 117-00-07.1050W
33-11.168933N / 117-00.118417W
33.1861489 / -117.0019736
(estimated)
Elevation: 1643 ft. / 501 m (estimated)
Variation: 13E (1985)
From city: 5 miles NE of ESCONDIDO, CA
Time zone: UTC -7 (UTC -8 during Standard Time)
Zip code: 92027

Airport Operations

Airport use: Private use. Permission required prior to landing
Activation date: 07/1957
Control tower: no
ARTCC: LOS ANGELES CENTER
FSS: SAN DIEGO FLIGHT SERVICE STATION
Attendance: UNATNDD
Wind indicator: yes
Segmented circle: no

Airport Communications

WX ASOS at RNM (10 nm SE): 132.025 (760-789-0736)
WX ASOS at CRQ (14 nm W): PHONE 760-930-0864
WX AWOS-3P at L18 (16 nm NW): 118.425 (760-723-6073)
WX ASOS at OKB (18 nm W): 127.8 (760-439-9683)

Nearby radio navigation aids

VOR radial/distance  VOR name  Freq  Var
JLIr262/21.1JULIAN VORTAC114.0015E
OCNr084/21.1OCEANSIDE VORTAC115.3015E
MZBr010/26.7MISSION BAY VORTAC117.8015E
PGYr344/34.6POGGI VORTAC109.8014E
HDFr151/(36.6)HOMELAND VOR113.4014E
TIJr342/38.8TIJUANA VOR/DME116.5014E

Airport Services

Parking: hangars
Airframe service: NONE
Powerplant service: NONE
Bottled oxygen: NONE
Bulk oxygen: NONE

Runway Information

Runway 3/21

Dimensions: 1345 x 30 ft. / 410 x 9 m
Surface: treated/dirt, in poor condition
Runway edge markings: RWY 03/21 MARKED WITH LETTER R AT EA END.
RUNWAY 3  RUNWAY 21
Traffic pattern: leftleft
Runway end identifier lights: nono
Obstructions: nonehill, 7500 ft. from runway

Airport Ownership and Management from official FAA records

Ownership: Privately-owned
Owner: JOHN O'FLYNN
25484 LAKE WOHLFORD RD
ESCONDIDO, CA 92027
Phone 760-749-2755
FAX - 760-749-2782
Manager: STEVE AGUEDA
25484 LAKE WOHLFORD RD
ESCONDIDO, CA 92027
Phone 760-749-2755
ADDL CONTACT - SANDRA MACDONALD - 760-749-2755

Airport Operational Statistics

Aircraft based on the field: 27
Single engine airplanes: 27
    
Aircraft operations: avg 86/week
89% transient general aviation
11% local general aviation

Additional Remarks

E98 T-HANGERS IN BAD COND.
100' DROPOFF EACH END OF RWY 03/21.
MOTEL CAFE AND LAKE NEARBY-LOCK ON GATE, KEY AT RESORT OFFICE.
PART 77 OBSTR-PARKED ACFT & HANGERS WITHIN PRIMARY SFC.

Instrument Procedures

There are no published instrument procedures at 8CL1.

Some nearby airports with instrument procedures:

KRNM - Ramona Airport (10 nm SE)
KCRQ - Mc Clellan-Palomar Airport (14 nm W)
L18 - Fallbrook Community Airpark (16 nm NW)
KOKB - Bob Maxwell Memorial Airfield (18 nm W)
KNFG - Camp Pendleton MCAS (Munn Field) Airport (19 nm W)
 
Loc | Ops | Rwys | IFR | FBO | Links
Com | Nav | Svcs | Stats | Notes


 
Area around 8CL1 (Lake Wohlford Resort Airport)
 
Road maps at: MapQuest Bing Google
 
Aerial photo
WARNING: Photo may not be current or correct
Aerial photo of 8CL1 (Lake Wohlford Resort Airport)
Do you have a better or more recent aerial photo of Lake Wohlford Resort Airport that you would like to share? If so, please send us your photo.

 
Sectional chart

 
Airport distance calculator
Flying to Lake Wohlford Resort Airport? Find the distance to fly.

From to 8CL1

Sunrise and sunset
Times for 20-Sep-2017
 Local
(UTC-7)
 Zulu
(UTC)
Morning civil twilight06:1113:11
Sunrise06:3613:36
Sunset18:4701:47
Evening civil twilight19:1202:12

Current date and time
Zulu (UTC)  20-Sep-2017 14:15:02
Local (UTC-7)  20-Sep-2017 07:15:02
 
METAR
KRNM 
10nm SE 
201353Z AUTO 10003KT 10SM BKN020 16/13 A2990 RMK AO2 SLP116 T01560128
KCRQ 
14nm W 
201353Z 17004KT 10SM OVC034 20/16 A2987 RMK AO2 SLP111 T02000161
KL18 
16nm NW 
201355Z AUTO 00000KT 10SM OVC030 18/14 A2989 RMK AO2
KOKB 
18nm W 
201352Z AUTO 00000KT 10SM OVC037 21/16 A2986 RMK AO2 SLP111 T02060161 $
KNFG 
18nm W 
201355Z 00000KT 7SM BKN022 21/16 A2987 RMK AO2 SLP113 T02110156 PNO $
TAF
KCRQ 
14nm W 
201138Z 2012/2112 15005KT P6SM OVC035 FM201800 22010KT P6SM SCT035 FM210200 19005KT P6SM OVC025
KNFG 
18nm W 
2009/2109 VRB05KT 9999 BKN020 QNH2984INS FM201830 20009KT 9999 SCT030 QNH2983INS BECMG 2103/2105 VRB05KT 9999 OVC020 QNH2985INS T18/2013Z T25/2020Z
NOTAMs
Click for the latest NOTAMs
NOTAMs are issued by the DoD/FAA and will open in a separate window not controlled by AirNav.

 

 
 

Would you like to see your business listed on this page?

 If your business provides an interesting product or service to pilots, flight crews, aircraft, or users of the Lake Wohlford Resort Airport, you should consider listing it here.  To start the listing process, click on the button below
 
Add a business
 

Other Pages about Lake Wohlford Resort Airport

Update a link
 
Copyright © AirNav, LLC. All rights reserved. Privacy Policy  Contact